createdAt,value
2023-03-16T00:02:04.007Z,7.70
2023-03-16T00:04:31.806Z,5.90
2023-03-16T00:06:58.922Z,6.80
2023-03-16T00:09:31.496Z,6.50
2023-03-16T00:11:59.345Z,7.70
2023-03-16T00:14:29.248Z,9.10
2023-03-16T00:16:56.495Z,9.50
2023-03-16T00:19:23.953Z,6.90
2023-03-16T00:21:51.628Z,10.10
2023-03-16T00:24:19.892Z,7.30
2023-03-16T00:26:47.560Z,10.50
2023-03-16T00:29:15.429Z,9.50
2023-03-16T00:31:45.574Z,7.00
2023-03-16T00:34:12.582Z,8.50
2023-03-16T00:36:39.833Z,9.60
2023-03-16T00:39:07.145Z,8.10
2023-03-16T00:41:38.173Z,9.80
2023-03-16T00:44:05.906Z,7.70
2023-03-16T00:46:32.915Z,6.90
2023-03-16T00:48:59.991Z,7.70
2023-03-16T00:51:26.843Z,8.50
2023-03-16T00:53:53.899Z,6.60
2023-03-16T00:56:20.917Z,5.20
2023-03-16T00:58:48.167Z,6.80
2023-03-16T01:01:16.407Z,7.40
2023-03-16T01:03:43.778Z,5.00
2023-03-16T01:06:12.799Z,5.50
2023-03-16T01:08:40.456Z,5.60
2023-03-16T01:11:12.629Z,7.50
2023-03-16T01:13:40.074Z,5.30
2023-03-16T01:16:08.564Z,3.60
2023-03-16T01:18:35.399Z,4.30
2023-03-16T01:21:03.867Z,5.90
2023-03-16T01:23:33.391Z,6.60
2023-03-16T01:26:00.250Z,5.90
2023-03-16T01:28:29.326Z,5.80
2023-03-16T01:30:59.957Z,7.80
2023-03-16T01:33:28.336Z,8.30
2023-03-16T01:35:56.877Z,5.70
2023-03-16T01:38:25.089Z,7.40
2023-03-16T01:40:54.004Z,7.60
2023-03-16T01:43:21.848Z,6.10
2023-03-16T01:46:07.155Z,6.50
2023-03-16T01:48:52.198Z,6.20
2023-03-16T01:51:24.555Z,7.00
2023-03-16T01:53:53.859Z,6.30
2023-03-16T01:56:24.390Z,7.60
2023-03-16T01:58:52.776Z,8.20
2023-03-16T02:01:19.835Z,8.90
2023-03-16T02:03:47.588Z,10.30
2023-03-16T02:06:19.569Z,9.10
2023-03-16T02:08:55.607Z,8.90
2023-03-16T02:11:23.679Z,7.70
2023-03-16T02:13:59.060Z,8.50
2023-03-16T02:16:26.785Z,9.80
2023-03-16T02:18:53.620Z,8.90
2023-03-16T02:21:41.840Z,9.00
2023-03-16T02:24:08.824Z,9.40
2023-03-16T02:26:55.836Z,10.40
2023-03-16T02:29:39.850Z,11.00
2023-03-16T02:32:06.664Z,6.80
2023-03-16T02:34:33.667Z,7.60
2023-03-16T02:37:01.120Z,8.00
2023-03-16T02:39:28.381Z,12.90
2023-03-16T02:41:55.416Z,10.20
2023-03-16T02:44:28.013Z,6.80
2023-03-16T02:46:56.280Z,6.10
2023-03-16T02:49:28.238Z,6.20
2023-03-16T02:51:55.073Z,6.10
2023-03-16T02:54:22.124Z,5.30
2023-03-16T02:56:49.377Z,7.60
2023-03-16T02:59:16.628Z,6.50
2023-03-16T03:01:43.423Z,7.50
2023-03-16T03:04:10.306Z,4.70
2023-03-16T03:06:37.158Z,4.80
2023-03-16T03:09:04.675Z,4.30
2023-03-16T03:11:31.421Z,5.40
2023-03-16T03:13:58.529Z,7.10
2023-03-16T03:16:26.945Z,10.00
2023-03-16T03:22:19.044Z,10.10
2023-03-16T03:24:46.280Z,9.40
2023-03-16T03:27:13.337Z,11.70
2023-03-16T03:29:40.982Z,13.60
2023-03-16T03:32:08.253Z,13.90
2023-03-16T03:34:35.308Z,9.40
2023-03-16T03:37:02.346Z,9.80
2023-03-16T03:39:29.793Z,8.50
2023-03-16T03:41:56.646Z,9.00
2023-03-16T03:44:23.889Z,10.30
2023-03-16T03:46:51.798Z,7.80
2023-03-16T03:49:19.017Z,8.40
2023-03-16T03:51:47.355Z,8.70
2023-03-16T03:54:17.822Z,10.20
2023-03-16T03:56:44.660Z,8.00
2023-03-16T03:59:14.164Z,6.20
2023-03-16T04:02:04.266Z,8.60
2023-03-16T04:04:40.413Z,7.90
2023-03-16T04:07:08.388Z,6.70
2023-03-16T04:09:35.524Z,7.00
2023-03-16T04:12:03.721Z,11.60
2023-03-16T04:14:30.647Z,5.10
2023-03-16T04:16:57.966Z,7.20
2023-03-16T04:19:25.771Z,7.40
2023-03-16T04:21:53.169Z,10.50
2023-03-16T04:24:22.503Z,11.00
2023-03-16T04:26:49.572Z,11.60
2023-03-16T04:29:19.482Z,8.30
2023-03-16T04:31:46.983Z,10.10
2023-03-16T04:34:14.398Z,8.40
2023-03-16T04:36:42.183Z,7.20
2023-03-16T04:39:10.757Z,8.90
2023-03-16T04:41:37.581Z,8.50
2023-03-16T04:44:10.168Z,10.00
2023-03-16T04:46:37.251Z,6.70
2023-03-16T04:49:09.858Z,5.70
2023-03-16T04:51:38.065Z,7.30
2023-03-16T04:54:08.011Z,7.00
2023-03-16T04:56:36.267Z,9.40
2023-03-16T04:59:06.778Z,7.60
2023-03-16T05:01:43.762Z,6.30
2023-03-16T05:04:18.911Z,7.10
2023-03-16T05:06:46.358Z,5.80
2023-03-16T05:09:14.167Z,7.70
2023-03-16T05:11:41.081Z,8.00
2023-03-16T05:14:10.327Z,9.10
2023-03-16T05:16:48.876Z,7.70
2023-03-16T05:19:38.257Z,11.60
2023-03-16T05:22:05.089Z,9.70
2023-03-16T05:24:31.941Z,15.10
2023-03-16T05:26:58.984Z,10.40
2023-03-16T05:29:27.073Z,7.70
2023-03-16T05:31:54.313Z,9.50
2023-03-16T05:34:22.578Z,9.80
2023-03-16T05:36:50.862Z,10.30
2023-03-16T05:39:18.115Z,9.20
2023-03-16T05:41:47.409Z,8.20
2023-03-16T05:44:37.193Z,23.80
2023-03-16T05:47:04.502Z,21.80
2023-03-16T05:49:32.520Z,15.20
2023-03-16T05:52:00.181Z,9.80
2023-03-16T05:54:27.834Z,10.90
2023-03-16T05:56:54.891Z,13.80
2023-03-16T05:59:22.006Z,16.10
2023-03-16T06:01:52.552Z,12.40
2023-03-16T06:04:20.622Z,14.30
2023-03-16T06:06:48.396Z,12.30
2023-03-16T06:09:19.540Z,12.70
2023-03-16T06:11:46.382Z,8.30
2023-03-16T06:14:14.717Z,8.90
2023-03-16T06:16:42.204Z,10.00
2023-03-16T06:19:09.580Z,7.30
2023-03-16T06:21:36.685Z,8.40
2023-03-16T06:24:09.398Z,7.70
2023-03-16T06:26:36.909Z,7.30
2023-03-16T06:29:05.902Z,7.50
2023-03-16T06:31:34.607Z,13.70
2023-03-16T06:34:02.717Z,11.50
2023-03-16T06:36:30.172Z,16.70
2023-03-16T06:38:58.732Z,15.40
2023-03-16T06:41:30.617Z,14.30
2023-03-16T06:43:57.664Z,15.10
2023-03-16T06:46:24.688Z,25.70
2023-03-16T06:48:52.572Z,19.20
2023-03-16T06:51:19.834Z,28.90
2023-03-16T06:53:47.289Z,38.10
2023-03-16T06:56:14.129Z,23.10
2023-03-16T06:58:42.616Z,13.90
2023-03-16T07:01:09.540Z,12.70
2023-03-16T07:03:36.500Z,13.50
2023-03-16T07:06:09.688Z,87.90
2023-03-16T07:08:36.534Z,47.70
2023-03-16T07:11:03.364Z,29.30
2023-03-16T07:13:30.430Z,15.70
2023-03-16T07:15:57.304Z,15.90
2023-03-16T07:18:26.367Z,9.60
2023-03-16T07:20:54.832Z,6.30
2023-03-16T07:23:24.539Z,5.90
2023-03-16T07:25:52.402Z,7.00
2023-03-16T07:28:19.977Z,3.50
2023-03-16T07:31:02.443Z,6.60
2023-03-16T07:33:35.270Z,6.90
2023-03-16T07:36:06.863Z,7.10
2023-03-16T07:38:37.344Z,4.10
2023-03-16T07:41:04.545Z,4.40
2023-03-16T07:43:31.648Z,5.10
2023-03-16T07:45:58.555Z,5.60
2023-03-16T07:48:26.351Z,4.10
2023-03-16T07:50:57.085Z,4.50
2023-03-16T07:53:24.332Z,6.30
2023-03-16T07:55:59.571Z,4.40
2023-03-16T07:58:27.031Z,6.80
2023-03-16T08:00:59.026Z,4.00
2023-03-16T08:03:26.488Z,6.10
2023-03-16T08:05:55.334Z,5.30
2023-03-16T08:08:22.876Z,4.30
2023-03-16T08:10:50.248Z,4.00
2023-03-16T08:13:19.603Z,7.80
2023-03-16T08:15:47.678Z,3.80
2023-03-16T08:18:21.636Z,4.90
2023-03-16T08:20:48.688Z,4.20
2023-03-16T08:23:15.944Z,4.30
2023-03-16T08:25:42.799Z,3.60
2023-03-16T08:28:12.904Z,4.30
2023-03-16T08:30:47.212Z,5.00
2023-03-16T08:33:26.247Z,4.20
2023-03-16T08:35:53.154Z,3.40
2023-03-16T08:38:20.568Z,5.00
2023-03-16T08:40:49.050Z,4.40
2023-03-16T08:43:17.269Z,4.30
2023-03-16T08:45:45.369Z,3.90
2023-03-16T08:48:13.253Z,5.30
2023-03-16T08:50:43.565Z,2.80
2023-03-16T08:53:11.231Z,3.40
2023-03-16T08:55:38.328Z,3.80
2023-03-16T08:58:05.035Z,2.90
2023-03-16T09:00:31.844Z,3.50
2023-03-16T09:02:59.207Z,4.70
2023-03-16T09:05:26.017Z,11.80
2023-03-16T09:07:54.324Z,13.80
2023-03-16T09:10:23.434Z,6.40
2023-03-16T09:12:50.664Z,20.70
2023-03-16T09:15:17.931Z,6.50
2023-03-16T09:17:46.018Z,5.60
2023-03-16T09:20:30.161Z,3.90
2023-03-16T09:22:57.636Z,4.00
2023-03-16T09:25:25.972Z,4.60
2023-03-16T09:27:53.025Z,3.40
2023-03-16T09:30:20.281Z,3.40
2023-03-16T09:32:49.381Z,4.30
2023-03-16T09:35:16.446Z,5.10
2023-03-16T09:38:03.959Z,3.50
2023-03-16T09:40:31.809Z,3.70
2023-03-16T09:43:10.534Z,5.10
2023-03-16T09:45:55.594Z,4.00
2023-03-16T09:48:24.898Z,29.20
2023-03-16T09:50:54.425Z,8.10
2023-03-16T09:53:32.317Z,6.20
2023-03-16T09:56:02.141Z,4.00
2023-03-16T09:58:29.062Z,6.10
2023-03-16T10:01:07.810Z,5.00
2023-03-16T10:03:50.952Z,3.30
2023-03-16T10:06:18.480Z,3.60
2023-03-16T10:08:47.764Z,5.30
2023-03-16T10:11:21.990Z,2.10
2023-03-16T10:13:52.835Z,3.20
2023-03-16T10:16:22.724Z,3.00
2023-03-16T10:18:53.636Z,2.30
2023-03-16T10:21:21.443Z,3.50
2023-03-16T10:23:50.124Z,4.10
2023-03-16T10:26:29.871Z,4.30
2023-03-16T10:28:56.710Z,3.00
2023-03-16T10:31:24.639Z,6.50
2023-03-16T10:33:55.842Z,3.80
2023-03-16T10:36:30.126Z,7.40
2023-03-16T10:39:02.748Z,7.80
2023-03-16T10:41:31.650Z,3.80
2023-03-16T10:44:12.368Z,3.70
2023-03-16T10:46:59.713Z,4.70
2023-03-16T10:49:27.425Z,5.50
2023-03-16T10:51:57.440Z,3.20
2023-03-16T10:54:31.087Z,2.70
2023-03-16T10:56:58.956Z,26.30
2023-03-16T10:59:35.645Z,37.40
2023-03-16T11:02:03.904Z,5.70
2023-03-16T11:04:31.869Z,16.50
2023-03-16T11:06:59.110Z,6.00
2023-03-16T11:09:35.320Z,7.50
2023-03-16T11:12:14.228Z,5.70
2023-03-16T11:14:45.600Z,3.80
2023-03-16T11:17:14.470Z,3.30
2023-03-16T11:19:52.982Z,6.50
2023-03-16T11:22:22.261Z,3.30
2023-03-16T11:25:07.141Z,4.00
2023-03-16T11:27:40.936Z,4.30
2023-03-16T11:30:11.409Z,5.10
2023-03-16T11:32:40.377Z,3.00
2023-03-16T11:35:18.461Z,3.20
2023-03-16T11:38:00.876Z,3.60
2023-03-16T11:40:30.789Z,4.00
2023-03-16T11:42:57.836Z,3.30
2023-03-16T11:45:37.323Z,6.10
2023-03-16T11:48:16.063Z,3.30
2023-03-16T11:50:51.828Z,4.30
2023-03-16T11:53:25.130Z,4.20
2023-03-16T11:56:22.285Z,4.00
2023-03-16T11:58:52.010Z,4.50
2023-03-16T12:01:31.558Z,5.10
2023-03-16T12:04:18.415Z,4.50
2023-03-16T12:06:45.287Z,2.90
2023-03-16T12:09:13.565Z,4.40
2023-03-16T12:11:50.854Z,4.30
2023-03-16T12:14:23.570Z,4.30
2023-03-16T12:16:53.641Z,5.70
2023-03-16T12:19:22.143Z,4.60
2023-03-16T12:21:55.228Z,4.20
2023-03-16T12:24:25.267Z,4.10
2023-03-16T12:26:53.469Z,4.90
2023-03-16T12:29:21.454Z,4.10
2023-03-16T12:31:53.862Z,5.00
2023-03-16T12:34:33.801Z,4.10
2023-03-16T12:37:04.537Z,1.60
2023-03-16T12:39:50.426Z,3.20
2023-03-16T12:42:26.485Z,3.30
2023-03-16T12:44:53.326Z,3.00
2023-03-16T12:47:20.650Z,4.10
2023-03-16T12:49:47.948Z,5.00
2023-03-16T12:52:14.868Z,2.60
2023-03-16T12:55:06.091Z,3.50
2023-03-16T12:57:33.047Z,3.50
2023-03-16T13:00:01.222Z,3.80
2023-03-16T13:02:32.584Z,4.60
2023-03-16T13:05:18.849Z,4.00
2023-03-16T13:07:50.410Z,3.80
2023-03-16T13:10:20.939Z,2.10
2023-03-16T13:12:48.395Z,3.90
2023-03-16T13:15:19.928Z,3.40
2023-03-16T13:17:48.457Z,3.20
2023-03-16T13:20:32.668Z,2.70
2023-03-16T13:23:21.026Z,5.20
2023-03-16T13:26:06.305Z,3.40
2023-03-16T13:28:35.920Z,2.90
2023-03-16T13:31:03.102Z,3.50
2023-03-16T13:33:31.562Z,2.60
2023-03-16T13:35:59.462Z,4.30
2023-03-16T13:38:28.847Z,4.50
2023-03-16T13:41:02.944Z,4.40
2023-03-16T13:43:32.023Z,4.90
2023-03-16T13:45:59.528Z,3.40
2023-03-16T13:48:26.297Z,3.10
2023-03-16T13:50:54.592Z,3.10
2023-03-16T13:53:24.818Z,3.00
2023-03-16T13:55:52.581Z,4.60
2023-03-16T13:58:21.686Z,2.20
2023-03-16T14:00:48.512Z,2.90
2023-03-16T14:03:18.227Z,2.90
2023-03-16T14:05:45.480Z,3.50
2023-03-16T14:08:20.116Z,2.80
2023-03-16T14:10:47.723Z,2.40
2023-03-16T14:13:29.969Z,2.50
2023-03-16T14:16:00.410Z,3.00
2023-03-16T14:18:38.196Z,2.60
2023-03-16T14:21:10.154Z,4.60
2023-03-16T14:23:39.053Z,4.40
2023-03-16T14:26:06.514Z,2.20
2023-03-16T14:28:33.840Z,5.90
2023-03-16T14:31:09.886Z,3.00
2023-03-16T14:33:42.206Z,1.70
2023-03-16T14:36:17.686Z,2.00
2023-03-16T14:38:48.832Z,3.20
2023-03-16T14:41:26.687Z,2.00
2023-03-16T14:44:00.895Z,4.60
2023-03-16T14:46:29.928Z,2.50
2023-03-16T14:49:03.717Z,2.80
2023-03-16T14:51:32.289Z,3.80
2023-03-16T14:53:59.118Z,4.30
2023-03-16T14:56:32.645Z,1.30
2023-03-16T14:58:59.563Z,2.80
2023-03-16T15:01:27.097Z,3.70
2023-03-16T15:03:54.470Z,1.80
2023-03-16T15:06:21.600Z,3.50
2023-03-16T15:08:51.237Z,2.40
2023-03-16T15:11:21.692Z,2.60
2023-03-16T15:13:49.021Z,2.50
2023-03-16T15:16:15.811Z,7.00
2023-03-16T15:18:43.117Z,2.60
2023-03-16T15:21:12.934Z,4.40
2023-03-16T15:23:40.856Z,1.50
2023-03-16T15:26:09.784Z,3.80
2023-03-16T15:28:36.830Z,1.60
2023-03-16T15:31:03.976Z,2.80
2023-03-16T15:33:31.536Z,3.20
2023-03-16T15:35:59.624Z,3.00
2023-03-16T15:38:32.382Z,2.50
2023-03-16T15:40:59.635Z,1.90
2023-03-16T15:43:28.881Z,4.30
2023-03-16T15:45:56.313Z,6.50
2023-03-16T15:48:25.482Z,2.10
2023-03-16T15:50:53.473Z,3.70
2023-03-16T15:53:30.651Z,3.20
2023-03-16T15:56:03.433Z,8.60
2023-03-16T15:58:31.642Z,6.00
2023-03-16T16:01:00.209Z,5.10
2023-03-16T16:03:28.240Z,3.30
2023-03-16T16:05:56.123Z,3.60
2023-03-16T16:08:23.362Z,1.30
2023-03-16T16:10:50.829Z,19.60
2023-03-16T16:13:20.123Z,3.30
2023-03-16T16:15:47.377Z,3.10
2023-03-16T16:18:30.810Z,2.10
2023-03-16T16:20:59.333Z,3.80
2023-03-16T16:23:26.921Z,2.70
2023-03-16T16:25:59.760Z,5.10
2023-03-16T16:28:29.236Z,3.90
2023-03-16T16:30:56.278Z,4.50
2023-03-16T16:33:28.246Z,2.50
2023-03-16T16:35:56.499Z,6.60
2023-03-16T16:38:24.019Z,4.00
2023-03-16T16:40:52.338Z,4.50
2023-03-16T16:43:19.111Z,3.10
2023-03-16T16:45:46.507Z,3.70
2023-03-16T16:48:25.451Z,3.80
2023-03-16T16:50:52.948Z,3.70
2023-03-16T16:53:20.998Z,3.30
2023-03-16T16:55:52.154Z,4.70
2023-03-16T16:58:24.631Z,6.70
2023-03-16T17:00:54.485Z,3.40
2023-03-16T17:03:27.433Z,2.20
2023-03-16T17:05:55.287Z,3.80
2023-03-16T17:08:23.974Z,3.40
2023-03-16T17:10:52.658Z,3.80
2023-03-16T17:13:26.666Z,3.90
2023-03-16T17:15:55.159Z,4.00
2023-03-16T17:18:22.899Z,4.20
2023-03-16T17:20:51.495Z,3.20
2023-03-16T17:23:25.019Z,3.30
2023-03-16T17:25:52.760Z,5.90
2023-03-16T17:28:21.141Z,2.80
2023-03-16T17:30:49.360Z,3.10
2023-03-16T17:33:17.537Z,2.80
2023-03-16T17:35:45.349Z,2.70
2023-03-16T17:38:20.491Z,4.10
2023-03-16T17:40:48.388Z,13.90
2023-03-16T17:43:18.188Z,21.00
2023-03-16T17:45:48.323Z,14.20
2023-03-16T17:48:21.205Z,9.20
2023-03-16T17:50:50.267Z,12.30
2023-03-16T17:53:20.602Z,11.60
2023-03-16T17:55:48.384Z,8.80
2023-03-16T17:58:21.258Z,10.40
2023-03-16T18:00:50.689Z,7.40
2023-03-16T18:03:19.180Z,8.00
2023-03-16T18:05:48.031Z,8.60
2023-03-16T18:08:34.490Z,8.20
2023-03-16T18:11:05.804Z,8.50
2023-03-16T18:13:36.254Z,10.70
2023-03-16T18:16:11.753Z,9.70
2023-03-16T18:18:41.752Z,9.40
2023-03-16T18:21:28.259Z,6.00
2023-03-16T18:23:57.240Z,6.70
2023-03-16T18:26:25.110Z,5.60
2023-03-16T18:28:56.450Z,6.40
2023-03-16T18:31:25.979Z,5.10
2023-03-16T18:34:17.589Z,5.30
2023-03-16T18:36:46.904Z,9.80
2023-03-16T18:39:20.608Z,10.40
2023-03-16T18:41:49.536Z,6.10
2023-03-16T18:44:22.301Z,4.70
2023-03-16T18:46:52.046Z,6.00
2023-03-16T18:49:24.160Z,6.20
2023-03-16T18:51:57.242Z,7.10
2023-03-16T18:54:32.708Z,21.40
2023-03-16T18:57:01.207Z,16.10
2023-03-16T18:59:29.537Z,10.30
2023-03-16T19:02:02.186Z,9.40
2023-03-16T19:04:33.922Z,8.50
2023-03-16T19:07:03.766Z,8.10
2023-03-16T19:09:33.904Z,7.90
2023-03-16T19:12:04.938Z,10.20
2023-03-16T19:14:34.119Z,10.00
2023-03-16T19:17:03.440Z,13.50
2023-03-16T19:19:32.518Z,12.80
2023-03-16T19:22:16.995Z,16.90
2023-03-16T19:24:52.692Z,17.90
2023-03-16T19:27:26.846Z,16.10
2023-03-16T19:29:56.360Z,18.20
2023-03-16T19:32:26.679Z,17.20
2023-03-16T19:34:55.782Z,16.10
2023-03-16T19:37:26.854Z,18.20
2023-03-16T19:40:05.648Z,22.40
2023-03-16T19:42:36.445Z,19.90
2023-03-16T19:45:06.095Z,19.50
2023-03-16T19:47:36.305Z,18.20
2023-03-16T19:50:06.836Z,15.10
2023-03-16T19:52:37.122Z,17.20
2023-03-16T19:55:05.958Z,19.40
2023-03-16T19:57:35.039Z,11.70
2023-03-16T20:00:05.060Z,15.60
2023-03-16T20:02:43.779Z,14.00
2023-03-16T20:05:17.764Z,17.50
2023-03-16T20:07:46.596Z,18.50
2023-03-16T20:10:20.105Z,22.30
2023-03-16T20:12:51.964Z,29.70
2023-03-16T20:15:22.164Z,33.40
2023-03-16T20:17:54.024Z,45.10
2023-03-16T20:20:25.706Z,50.30
2023-03-16T20:22:55.971Z,30.30
2023-03-16T20:25:26.017Z,20.10
2023-03-16T20:28:00.315Z,12.50
2023-03-16T20:30:30.415Z,20.60
2023-03-16T20:32:59.604Z,19.70
2023-03-16T20:35:32.984Z,19.10
2023-03-16T20:38:01.423Z,19.80
2023-03-16T20:40:30.117Z,24.30
2023-03-16T20:43:01.675Z,32.30
2023-03-16T20:45:31.252Z,26.40
2023-03-16T20:47:59.590Z,29.10
2023-03-16T20:50:30.594Z,23.60
2023-03-16T20:52:58.626Z,27.30
2023-03-16T20:55:29.112Z,25.30
2023-03-16T20:57:58.857Z,22.00
2023-03-16T21:00:29.843Z,21.00
2023-03-16T21:03:01.485Z,21.40
2023-03-16T21:05:32.940Z,22.50
2023-03-16T21:07:59.995Z,20.10
2023-03-16T21:10:28.258Z,20.60
2023-03-16T21:12:57.452Z,17.80
2023-03-16T21:15:30.086Z,15.30
2023-03-16T21:18:01.005Z,21.80
2023-03-16T21:20:30.577Z,20.20
2023-03-16T21:22:58.256Z,24.60
2023-03-16T21:25:29.295Z,26.70
2023-03-16T21:27:57.874Z,24.80
2023-03-16T21:30:24.918Z,24.90
2023-03-16T21:32:53.547Z,26.10
2023-03-16T21:35:21.902Z,26.80
2023-03-16T21:37:50.566Z,18.80
2023-03-16T21:40:20.072Z,18.50
2023-03-16T21:42:47.949Z,12.10
2023-03-16T21:45:15.401Z,13.60
2023-03-16T21:47:42.652Z,13.90
2023-03-16T21:50:19.253Z,13.80
2023-03-16T21:52:46.953Z,13.20
2023-03-16T21:55:23.270Z,13.00
2023-03-16T21:57:51.321Z,14.50
2023-03-16T22:00:19.180Z,12.60
2023-03-16T22:02:47.110Z,10.40
2023-03-16T22:05:24.596Z,9.10
2023-03-16T22:07:51.561Z,10.60
2023-03-16T22:10:18.553Z,10.60
2023-03-16T22:12:45.478Z,10.70
2023-03-16T22:15:12.734Z,14.40
2023-03-16T22:17:39.490Z,18.80
2023-03-16T22:20:35.525Z,23.50
2023-03-16T22:23:03.160Z,20.10
2023-03-16T22:25:30.175Z,22.90
2023-03-16T22:27:58.206Z,22.00
2023-03-16T22:30:28.401Z,21.60
2023-03-16T22:32:57.970Z,17.90
2023-03-16T22:35:36.223Z,18.20
2023-03-16T22:38:04.286Z,18.20
2023-03-16T22:40:31.851Z,14.60
2023-03-16T22:43:02.433Z,20.80
2023-03-16T22:45:30.480Z,22.60
2023-03-16T22:47:58.470Z,21.10
2023-03-16T22:50:27.924Z,20.10
2023-03-16T22:52:57.514Z,17.70
2023-03-16T22:55:28.367Z,20.60
2023-03-16T22:58:02.780Z,15.60
2023-03-16T23:00:29.708Z,22.50
2023-03-16T23:02:57.695Z,19.20
2023-03-16T23:05:25.950Z,21.40
2023-03-16T23:07:53.226Z,22.50
2023-03-16T23:10:22.936Z,18.30
2023-03-16T23:12:50.537Z,25.20
2023-03-16T23:15:19.904Z,20.10
2023-03-16T23:17:46.759Z,19.40
2023-03-16T23:20:19.112Z,18.80
2023-03-16T23:22:45.894Z,18.10
2023-03-16T23:25:12.680Z,19.30
2023-03-16T23:27:40.040Z,14.20
2023-03-16T23:30:24.213Z,19.00
2023-03-16T23:32:52.054Z,18.70
2023-03-16T23:35:21.064Z,20.90
2023-03-16T23:37:48.520Z,19.10
2023-03-16T23:40:15.581Z,18.50
2023-03-16T23:42:43.228Z,16.50
2023-03-16T23:45:12.529Z,15.00
2023-03-16T23:47:39.494Z,13.60
2023-03-16T23:50:06.845Z,11.90
2023-03-16T23:52:33.761Z,14.00
2023-03-16T23:55:01.130Z,10.10
2023-03-16T23:57:27.965Z,11.50
2023-03-16T23:59:54.737Z,13.00
